PIMOHWEATHER Station Historical Data
 
Daily Summary for June 15, 2024 Units:  Metric    English   Both
Daily Weekly Monthly Yearly
  Current: High: Low: Average:
Temperature: 30.7 °C 31.7 °C 25.2 °C 27.9 °C
Dew Point: 26.8 °C 27.2 °C 23.9 °C 25.4 °C
Humidity: 79.7% 93% 76.5% 87%
Wind Speed: 18.7km/h 20km/h 0km/h 3.6km/h
Wind Gust: 36.4km/h 36.4km/h - -
WindSW - - ESE
Pressure: 1006.4 hPa 1006.8 hPa 1005.1 hPa -
Precipitation: 2.0 mm      
 
 
Tabular Data for June 15, 2024
Time Temperature Dew Point Pressure Wind Wind Speed Wind Gust Humidity Rainfall Rate (Hourly) solar
00:04 29.2 °C 26.5 °C 1005.8 hPa NE 1.4 km/h 7.9 km/h 85.8% 0.0 mm 0 W/m2
00:09 29.1 °C 26.5 °C 1005.8 hPa NE 0.9 km/h 7.9 km/h 86% 0.0 mm 0 W/m2
00:14 29.1 °C 26.3 °C 1005.8 hPa ENE 1 km/h 7.9 km/h 85.3% 0.0 mm 0 W/m2
00:19 29.1 °C 26.4 °C 1005.8 hPa East 0.9 km/h 7.9 km/h 85.6% 0.0 mm 0 W/m2
00:24 29.1 °C 26.3 °C 1005.8 hPa ENE 1.3 km/h 12.2 km/h 85% 0.0 mm 0 W/m2
00:29 29.1 °C 26.3 °C 1005.8 hPa ENE 1.8 km/h 12.2 km/h 85% 0.0 mm 0 W/m2
00:34 29.1 °C 26.3 °C 1005.8 hPa NE 1.9 km/h 16.3 km/h 85% 0.0 mm 0 W/m2
00:39 29.1 °C 26.3 °C 1005.8 hPa NW 0.9 km/h 7.9 km/h 85% 0.0 mm 0 W/m2
00:44 29 °C 26.2 °C 1005.8 hPa SSE 2.1 km/h 7.9 km/h 85% 0.0 mm 0 W/m2
00:49 29 °C 26.2 °C 1005.8 hPa NE 1.4 km/h 4 km/h 85% 0.0 mm 0 W/m2
00:54 28.9 °C 26.1 °C 1005.4 hPa ENE 2.4 km/h 16.3 km/h 85% 0.0 mm 0 W/m2
00:59 29 °C 26.2 °C 1005.4 hPa NE 0.4 km/h 4 km/h 85% 0.0 mm 0 W/m2
01:04 29 °C 26.2 °C 1005.4 hPa NNE 1.5 km/h 7.9 km/h 85% 0.0 mm 0 W/m2
01:09 29 °C 26.2 °C 1005.4 hPa South 0.8 km/h 7.9 km/h 85% 0.0 mm 0 W/m2
01:14 29.1 °C 26.3 °C 1005.1 hPa South 2.9 km/h 12.2 km/h 85% 0.0 mm 0 W/m2
01:19 29.1 °C 26.3 °C 1005.1 hPa SSE 2.2 km/h 12.2 km/h 85% 0.0 mm 0 W/m2
01:24 29.1 °C 26.3 °C 1005.1 hPa SSW 9.4 km/h 20.1 km/h 85% 0.0 mm 0 W/m2
01:29 29 °C 26.4 °C 1005.1 hPa SSW 11.3 km/h 24.1 km/h 85.8% 0.0 mm 0 W/m2
01:34 28.9 °C 26.3 °C 1005.1 hPa SSW 9.3 km/h 20.1 km/h 86% 0.0 mm 0 W/m2
01:39 28.9 °C 26.3 °C 1005.4 hPa SW 11.8 km/h 20.1 km/h 86.1% 0.0 mm 0 W/m2
01:44 28.8 °C 26.4 °C 1005.4 hPa SSE 6 km/h 16.3 km/h 86.9% 0.0 mm 0 W/m2
01:49 28.9 °C 26.3 °C 1005.4 hPa South 3.5 km/h 16.3 km/h 86% 0.0 mm 0 W/m2
01:54 28.9 °C 26.3 °C 1005.1 hPa SSW 8.3 km/h 16.3 km/h 86% 0.0 mm 0 W/m2
01:59 28.9 °C 26.3 °C 1005.1 hPa South 1.9 km/h 12.2 km/h 86.1% 0.0 mm 0 W/m2
02:04 28.9 °C 26.3 °C 1005.1 hPa SSW 4.1 km/h 7.9 km/h 86% 0.0 mm 0 W/m2
02:09 28.9 °C 26.3 °C 1005.4 hPa SSW 0.6 km/h 7.9 km/h 86.2% 0.0 mm 0 W/m2
02:14 28.8 °C 26.4 °C 1005.4 hPa SE 0.7 km/h 4 km/h 86.8% 0.0 mm 0 W/m2
02:19 28.8 °C 26.4 °C 1005.4 hPa SSW 2.4 km/h 7.9 km/h 87% 0.0 mm 0 W/m2
02:24 28.8 °C 26.4 °C 1005.8 hPa Calm     87% 0.0 mm 0 W/m2
02:29 28.9 °C 26.5 °C 1005.8 hPa ESE 0.8 km/h 4 km/h 86.9% 0.0 mm 0 W/m2
02:34 28.7 °C 26.1 °C 1005.8 hPa NW 6 km/h 24.1 km/h 86% 0.0 mm 0 W/m2
02:39 28.2 °C 25.6 °C 1005.4 hPa NE 5.7 km/h 24.1 km/h 86% 0.0 mm 0 W/m2
02:44 28 °C 25.3 °C 1005.4 hPa NNE 4.9 km/h 20.1 km/h 86% 0.0 mm 0 W/m2
02:49 27.8 °C 25.3 °C 1005.4 hPa NNE 9 km/h 20.1 km/h 86% 0.0 mm 0 W/m2
02:54 27.9 °C 25.2 °C 1005.4 hPa NNE 9.3 km/h 28 km/h 85.6% 0.0 mm 0 W/m2
02:59 27.9 °C 25.1 °C 1005.4 hPa NNE 8.5 km/h 24.1 km/h 85% 0.0 mm 0 W/m2
03:04 28 °C 25.2 °C 1005.4 hPa North 8.8 km/h 24.1 km/h 85% 0.0 mm 0 W/m2
03:09 27.8 °C 25.2 °C 1005.8 hPa NNW 19.2 km/h 32.3 km/h 86.4% 0.0 mm 0 W/m2
03:14 27.3 °C 25 °C 1005.8 hPa North 9.9 km/h 28 km/h 87% 0.0 mm 0 W/m2
03:19 27.3 °C 25 °C 1005.8 hPa North 12.2 km/h 36.4 km/h 87.6% 0.0 mm 0 W/m2
03:24 27.1 °C 24.8 °C 1005.8 hPa North 20 km/h 36.4 km/h 88% 0.0 mm 0 W/m2
03:29 26.7 °C 24.7 °C 1005.8 hPa NNW 14.6 km/h 32.3 km/h 89% 0.0 mm 0 W/m2
03:34 26.6 °C 24.6 °C 1005.8 hPa North 16 km/h 36.4 km/h 89% 1.8 mm 0 W/m2
03:39 26.3 °C 24.4 °C 1005.8 hPa ENE 7.7 km/h 36.4 km/h 89.5% 1.8 mm 0 W/m2
03:44 26.1 °C 24.3 °C 1005.8 hPa North 10.7 km/h 24.1 km/h 90% 1.8 mm 0 W/m2
03:49 25.9 °C 24.2 °C 1005.8 hPa NNE 5.1 km/h 16.3 km/h 90% 5.3 mm 0 W/m2
03:54 25.8 °C 24.2 °C 1005.4 hPa NNE 5.2 km/h 12.2 km/h 90.6% 8.9 mm 0 W/m2
03:59 25.7 °C 24.1 °C 1005.4 hPa North 7 km/h 12.2 km/h 91% 7.1 mm 0 W/m2
04:04 25.6 °C 24 °C 1005.4 hPa NNE 3.9 km/h 12.2 km/h 91% 1.8 mm 0 W/m2
04:09 25.6 °C 24.2 °C 1005.4 hPa NNE 2.7 km/h 7.9 km/h 92% 0.0 mm 0 W/m2
04:14 25.4 °C 24 °C 1005.8 hPa NE 2.3 km/h 7.9 km/h 92% 1.8 mm 0 W/m2
04:19 25.2 °C 23.9 °C 1005.8 hPa NNE 2.4 km/h 7.9 km/h 92.1% 1.8 mm 0 W/m2
04:24 25.3 °C 24 °C 1005.8 hPa NNE 2.6 km/h 7.9 km/h 92.8% 1.8 mm 0 W/m2
04:29 25.3 °C 24.1 °C 1005.8 hPa NNE 1.3 km/h 7.9 km/h 93% 0.0 mm 0 W/m2
04:34 25.2 °C 24 °C 1005.8 hPa NE 0.4 km/h 7.9 km/h 93% 0.0 mm 0 W/m2
04:39 25.3 °C 24.1 °C 1005.8 hPa NNE 2.5 km/h 7.9 km/h 93% 0.0 mm 0 W/m2
04:44 25.4 °C 24.2 °C 1005.4 hPa ENE 3.5 km/h 7.9 km/h 93% 0.0 mm 0 W/m2
04:49 25.3 °C 24.2 °C 1005.4 hPa NNE 1.4 km/h 7.9 km/h 93% 0.0 mm 0 W/m2
04:54 25.3 °C 24.2 °C 1005.4 hPa NE 0.5 km/h 4 km/h 93% 0.0 mm 0 W/m2
04:59 25.5 °C 24.2 °C 1005.4 hPa NNE 0.2 km/h 4 km/h 92.8% 0.0 mm 0 W/m2
05:04 25.6 °C 24.2 °C 1005.4 hPa SW 1.1 km/h 7.9 km/h 92.1% 0.0 mm 0 W/m2
05:09 25.8 °C 24.3 °C 1005.4 hPa NNE 0.8 km/h 4 km/h 91.4% 0.0 mm 0 W/m2
05:14 25.9 °C 24.3 °C 1005.1 hPa NNE 0.4 km/h 4 km/h 91% 0.0 mm 0 W/m2
05:19 26.2 °C 24.6 °C 1005.4 hPa NE 0.5 km/h 4 km/h 91% 0.0 mm 0 W/m2
05:24 26.3 °C 24.5 °C 1005.4 hPa Calm     90% 0.0 mm 0 W/m2
05:29 26.3 °C 24.5 °C 1005.4 hPa Calm     90% 0.0 mm 0 W/m2
05:34 26.4 °C 24.7 °C 1005.4 hPa Calm   4 km/h 90.2% 0.0 mm 3 W/m2
05:39 26.5 °C 24.7 °C 1005.4 hPa Calm   4 km/h 90% 0.0 mm 6 W/m2
05:44 26.5 °C 24.7 °C 1005.4 hPa Calm     90% 0.0 mm 10 W/m2
05:49 26.7 °C 24.8 °C 1005.4 hPa SE 1.5 km/h 4 km/h 90% 0.0 mm 14 W/m2
05:54 26.8 °C 25 °C 1005.8 hPa NE 0.2 km/h 4 km/h 90% 0.0 mm 18 W/m2
05:59 26.8 °C 25 °C 1005.8 hPa SSE 0.9 km/h 4 km/h 90% 0.0 mm 23 W/m2
06:04 26.8 °C 25 °C 1005.8 hPa SE 2.4 km/h 7.9 km/h 90% 0.0 mm 29 W/m2
06:09 26.8 °C 25 °C 1005.8 hPa ENE 1.2 km/h 7.9 km/h 90% 0.0 mm 34 W/m2
06:14 26.8 °C 24.8 °C 1005.8 hPa SE 1.1 km/h 7.9 km/h 89.1% 0.0 mm 39 W/m2
06:19 26.8 °C 24.8 °C 1006.1 hPa Calm   4 km/h 89% 0.0 mm 44 W/m2
06:24 26.9 °C 24.9 °C 1006.1 hPa Calm   4 km/h 89% 0.0 mm 49 W/m2
06:29 27 °C 24.8 °C 1006.1 hPa East 0.3 km/h 4 km/h 88.1% 0.0 mm 51 W/m2
06:34 27.2 °C 25 °C 1006.1 hPa Calm   4 km/h 88% 0.0 mm 54 W/m2
06:39 27.3 °C 25.1 °C 1006.1 hPa NE 0.1 km/h 4 km/h 88% 0.0 mm 58 W/m2
06:44 27.3 °C 24.9 °C 1006.1 hPa ENE 1.3 km/h 4 km/h 87% 0.0 mm 59 W/m2
06:49 27.4 °C 25 °C 1006.4 hPa NE 0.3 km/h 4 km/h 87% 0.0 mm 78 W/m2
06:54 27.7 °C 25.2 °C 1006.1 hPa NE 0.5 km/h 4 km/h 86.7% 0.0 mm 88 W/m2
06:59 27.9 °C 25.3 °C 1006.1 hPa NE 0.5 km/h 4 km/h 86% 0.0 mm 87 W/m2
07:04 27.9 °C 25.3 °C 1006.4 hPa SE 1.8 km/h 7.9 km/h 86% 0.0 mm 83 W/m2
07:09 28 °C 25.4 °C 1006.4 hPa NE 0.3 km/h 4 km/h 86% 0.0 mm 92 W/m2
07:14 28.2 °C 25.4 °C 1006.4 hPa Calm   4 km/h 85.1% 0.0 mm 105 W/m2
07:19 28.3 °C 25.4 °C 1006.4 hPa ENE 0.6 km/h 7.9 km/h 84.5% 0.0 mm 142 W/m2
07:24 28.4 °C 25.5 °C 1006.4 hPa East 0.6 km/h 7.9 km/h 84.1% 0.0 mm 175 W/m2
07:29 28.6 °C 25.6 °C 1006.4 hPa NE 1.9 km/h 7.9 km/h 83.9% 0.0 mm 193 W/m2
07:34 28.9 °C 25.7 °C 1006.4 hPa NE 1.1 km/h 7.9 km/h 83.1% 0.0 mm 244 W/m2
07:39 29.4 °C 25.9 °C 1006.8 hPa SSW 2.8 km/h 7.9 km/h 81.6% 0.0 mm 259 W/m2
07:44 29.6 °C 26 °C 1006.8 hPa SSE 4.3 km/h 12.2 km/h 81% 0.0 mm 300 W/m2
07:49 29.9 °C 26.2 °C 1006.8 hPa ESE 1.2 km/h 12.2 km/h 80.3% 0.0 mm 309 W/m2
07:54 30.3 °C 26.4 °C 1006.8 hPa SSE 2.6 km/h 16.3 km/h 79.6% 0.0 mm 309 W/m2
07:59 30.2 °C 26.4 °C 1006.8 hPa SSE 1.9 km/h 16.3 km/h 80% 0.0 mm 259 W/m2
08:04 30.2 °C 26.3 °C 1006.4 hPa East 3.4 km/h 7.9 km/h 79.8% 0.0 mm 297 W/m2
08:09 30.3 °C 26.2 °C 1006.4 hPa SSE 4.3 km/h 12.2 km/h 79.2% 0.0 mm 379 W/m2
08:14 30.6 °C 26.4 °C 1006.8 hPa ENE 2 km/h 12.2 km/h 78.8% 0.0 mm 375 W/m2
08:19 30.8 °C 26.5 °C 1006.8 hPa South 3.5 km/h 16.3 km/h 78% 0.0 mm 435 W/m2
08:24 31.1 °C 26.7 °C 1006.4 hPa SE 2.9 km/h 16.3 km/h 77.5% 0.0 mm 483 W/m2
08:29 31.3 °C 26.8 °C 1006.4 hPa ENE 1.7 km/h 7.9 km/h 77% 0.0 mm 513 W/m2
08:34 31.7 °C 27.1 °C 1006.4 hPa SSE 4.5 km/h 16.3 km/h 76.5% 0.0 mm 524 W/m2
08:39 31.5 °C 27.2 °C 1006.4 hPa South 9.4 km/h 24.1 km/h 77.9% 0.0 mm 518 W/m2
08:44 30.7 °C 26.8 °C 1006.4 hPa SW 18.7 km/h 36.4 km/h 79.7% 0.0 mm 487 W/m2
PIMOHWEATHER Philippines
Compliments of Weather Underground - 2 mb